createdAt,value
2022-09-03T00:00:12.150Z,100989.16
2022-09-03T00:03:02.623Z,100988.00
2022-09-03T00:05:48.636Z,100981.16
2022-09-03T00:08:21.134Z,100982.31
2022-09-03T00:11:40.665Z,100977.16
2022-09-03T00:14:28.576Z,100971.94
2022-09-03T00:17:03.917Z,100978.66
2022-09-03T00:19:36.311Z,100980.84
2022-09-03T00:22:14.316Z,100976.56
2022-09-03T00:24:44.169Z,100972.72
2022-09-03T00:27:20.735Z,100969.44
2022-09-03T00:30:17.024Z,100982.31
2022-09-03T00:32:57.118Z,100980.03
2022-09-03T00:35:31.865Z,100976.44
2022-09-03T00:38:00.674Z,100960.34
2022-09-03T00:41:18.627Z,100970.06
2022-09-03T00:44:38.543Z,100951.38
2022-09-03T00:47:29.910Z,100977.38
2022-09-03T00:50:04.035Z,100972.25
2022-09-03T00:53:27.622Z,100965.22
2022-09-03T00:56:42.592Z,100968.97
2022-09-03T00:59:33.715Z,100970.97
2022-09-03T01:02:42.672Z,100964.53
2022-09-03T01:05:39.995Z,100962.66
2022-09-03T01:08:06.871Z,100960.22
2022-09-03T01:11:18.696Z,100963.41
2022-09-03T01:14:21.047Z,100963.53
2022-09-03T01:17:00.243Z,100967.41
2022-09-03T01:19:59.832Z,100970.13
2022-09-03T01:22:50.644Z,100966.69
2022-09-03T01:25:49.549Z,100962.38
2022-09-03T01:28:35.262Z,100968.97
2022-09-03T01:31:57.900Z,100961.81
2022-09-03T01:35:02.441Z,100966.84
2022-09-03T01:37:45.407Z,100961.09
2022-09-03T01:40:25.941Z,100969.69
2022-09-03T01:43:05.048Z,100978.13
2022-09-03T01:45:54.374Z,100973.69
2022-09-03T01:48:43.560Z,100972.13
2022-09-03T01:54:20.921Z,100971.13
2022-09-03T01:57:37.008Z,100968.13
2022-09-03T02:00:04.389Z,100970.28
2022-09-03T02:02:39.123Z,100968.84
2022-09-03T02:05:14.393Z,100965.25
2022-09-03T02:07:47.313Z,100965.25
2022-09-03T02:10:21.588Z,100968.13
2022-09-03T02:12:58.953Z,100971.13
2022-09-03T02:15:27.735Z,100971.28
2022-09-03T02:18:00.398Z,100970.44
2022-09-03T02:20:30.020Z,100978.84
2022-09-03T02:22:58.844Z,100978.69
2022-09-03T02:25:37.239Z,100976.84
2022-09-03T02:28:07.479Z,100979.56
2022-09-03T02:30:44.863Z,100963.13
2022-09-03T02:33:12.325Z,100970.84
2022-09-03T02:35:40.994Z,100967.41
2022-09-03T02:38:25.747Z,100956.84
2022-09-03T02:40:56.484Z,100958.88
2022-09-03T02:44:01.456Z,100963.84
2022-09-03T02:46:39.863Z,100960.84
2022-09-03T02:49:07.446Z,100969.16
2022-09-03T02:51:40.798Z,100973.69
2022-09-03T02:54:10.770Z,100969.56
2022-09-03T02:56:38.095Z,100951.28
2022-09-03T02:59:07.932Z,100965.69
2022-09-03T03:01:35.841Z,100966.81
2022-09-03T03:04:03.580Z,100963.53
2022-09-03T03:06:30.519Z,100967.53
2022-09-03T03:08:57.769Z,100962.25
2022-09-03T03:11:26.280Z,100957.53
2022-09-03T03:13:53.466Z,100954.38
2022-09-03T03:16:20.702Z,100955.25
2022-09-03T03:18:47.741Z,100960.09
2022-09-03T03:21:18.233Z,100965.78
2022-09-03T03:23:45.574Z,100951.63
2022-09-03T03:26:18.430Z,100950.72
2022-09-03T03:28:49.667Z,100964.84
2022-09-03T03:31:20.939Z,100964.16
2022-09-03T03:33:56.019Z,100966.72
2022-09-03T03:36:26.123Z,100962.72
2022-09-03T03:38:58.447Z,100962.13
2022-09-03T03:41:34.239Z,100970.09
2022-09-03T03:44:05.589Z,100967.69
2022-09-03T03:46:39.833Z,100963.25
2022-09-03T03:49:08.642Z,100958.25
2022-09-03T03:51:37.242Z,100957.09
2022-09-03T03:54:05.710Z,100957.53
2022-09-03T03:56:34.716Z,100957.53
2022-09-03T03:59:02.139Z,100960.38
2022-09-03T04:01:29.662Z,100958.22
2022-09-03T04:03:59.112Z,100959.81
2022-09-03T04:06:26.797Z,100961.63
2022-09-03T04:08:53.821Z,100960.06
2022-09-03T04:11:23.409Z,100953.81
2022-09-03T04:13:51.730Z,100954.31
2022-09-03T04:16:22.233Z,100950.03
2022-09-03T04:18:49.961Z,100962.03
2022-09-03T04:21:20.718Z,100951.44
2022-09-03T04:23:49.867Z,100959.72
2022-09-03T04:26:20.852Z,100962.72
2022-09-03T04:28:48.457Z,100962.09
2022-09-03T04:31:18.256Z,100949.44
2022-09-03T04:33:45.420Z,100952.16
2022-09-03T04:36:16.942Z,100953.97
2022-09-03T04:38:45.768Z,100942.69
2022-09-03T04:41:16.308Z,100954.53
2022-09-03T04:43:43.954Z,100953.38
2022-09-03T04:46:16.456Z,100960.53
2022-09-03T04:48:48.136Z,100961.66
2022-09-03T04:51:18.081Z,100956.50
2022-09-03T04:53:47.541Z,100954.66
2022-09-03T04:56:15.131Z,100957.38
2022-09-03T04:58:44.162Z,100958.94
2022-09-03T05:01:16.282Z,100958.09
2022-09-03T05:03:44.339Z,100960.53
2022-09-03T05:06:12.086Z,100951.09
2022-09-03T05:08:40.240Z,100968.78
2022-09-03T05:11:08.252Z,100964.22
2022-09-03T05:13:40.192Z,100966.69
2022-09-03T05:16:10.070Z,100955.69
2022-09-03T05:18:37.441Z,100959.00
2022-09-03T05:21:14.824Z,100949.47
2022-09-03T05:23:45.492Z,100928.50
2022-09-03T05:26:16.144Z,100944.78
2022-09-03T05:28:44.857Z,100956.09
2022-09-03T05:31:14.044Z,100955.69
2022-09-03T05:33:44.451Z,100949.00
2022-09-03T05:36:23.147Z,100948.41
2022-09-03T05:38:51.125Z,100945.75
2022-09-03T05:41:19.256Z,100950.50
2022-09-03T05:43:53.464Z,100944.25
2022-09-03T05:46:20.708Z,100942.56
2022-09-03T05:48:47.638Z,100938.13
2022-09-03T05:51:17.266Z,100945.13
2022-09-03T05:53:48.280Z,100943.72
2022-09-03T05:56:21.061Z,100944.44
2022-09-03T05:58:54.400Z,100951.72
2022-09-03T06:01:37.117Z,100949.72
2022-09-03T06:04:07.530Z,100954.41
2022-09-03T06:06:37.814Z,100951.16
2022-09-03T06:09:08.440Z,100956.28
2022-09-03T06:11:38.051Z,100963.09
2022-09-03T06:14:08.549Z,100950.69
2022-09-03T06:16:45.323Z,100955.94
2022-09-03T06:19:14.164Z,100944.97
2022-09-03T06:21:44.245Z,100954.03
2022-09-03T06:24:14.862Z,100955.31
2022-09-03T06:26:43.046Z,100955.81
2022-09-03T06:29:10.628Z,100949.75
2022-09-03T06:31:37.902Z,100955.06
2022-09-03T06:34:05.950Z,100955.06
2022-09-03T06:36:33.456Z,100952.44
2022-09-03T06:39:01.560Z,100947.22
2022-09-03T06:41:35.286Z,100953.19
2022-09-03T06:44:06.012Z,100970.03
2022-09-03T06:46:36.354Z,100960.47
2022-09-03T06:49:03.368Z,100956.31
2022-09-03T06:51:33.232Z,100964.09
2022-09-03T06:54:10.482Z,100970.25
2022-09-03T06:56:41.268Z,100975.41
2022-09-03T06:59:12.153Z,100966.34
2022-09-03T07:01:45.070Z,100972.75
2022-09-03T07:04:16.901Z,100968.69
2022-09-03T07:06:46.462Z,100966.22
2022-09-03T07:09:15.326Z,100959.66
2022-09-03T07:11:48.015Z,100959.25
2022-09-03T07:14:20.347Z,100956.97
2022-09-03T07:16:49.762Z,100965.34
2022-09-03T07:19:17.671Z,100956.66
2022-09-03T07:21:49.600Z,100964.19
2022-09-03T07:24:19.807Z,100962.56
2022-09-03T07:26:47.226Z,100953.91
2022-09-03T07:29:15.941Z,100958.34
2022-09-03T07:31:44.085Z,100961.97
2022-09-03T07:34:13.576Z,100957.28
2022-09-03T07:36:44.075Z,100960.94
2022-09-03T07:39:13.914Z,100957.72
2022-09-03T07:41:50.221Z,100955.22
2022-09-03T07:44:21.476Z,100958.13
2022-09-03T07:46:50.618Z,100952.88
2022-09-03T07:49:17.983Z,100945.03
2022-09-03T07:51:46.535Z,100957.19
2022-09-03T07:54:13.476Z,100950.03
2022-09-03T07:56:41.109Z,100939.63
2022-09-03T07:59:09.026Z,100952.06
2022-09-03T08:01:37.174Z,100951.38
2022-09-03T08:04:09.881Z,100958.34
2022-09-03T08:06:38.752Z,100950.13
2022-09-03T08:09:11.440Z,100950.47
2022-09-03T08:11:43.240Z,100955.06
2022-09-03T08:14:13.327Z,100951.81
2022-09-03T08:16:43.621Z,100963.44
2022-09-03T08:19:13.373Z,100964.84
2022-09-03T08:21:44.013Z,100966.72
2022-09-03T08:24:12.366Z,100954.41
2022-09-03T08:26:46.315Z,100953.63
2022-09-03T08:29:14.902Z,100953.00
2022-09-03T08:31:42.952Z,100950.25
2022-09-03T08:34:11.838Z,100951.03
2022-09-03T08:36:41.602Z,100957.38
2022-09-03T08:39:11.005Z,100945.91
2022-09-03T08:41:53.340Z,100951.50
2022-09-03T08:45:08.825Z,100937.28
2022-09-03T08:47:52.003Z,100948.72
2022-09-03T08:50:28.359Z,100950.38
2022-09-03T08:53:19.670Z,100947.91
2022-09-03T08:55:58.536Z,100956.28
2022-09-03T08:58:33.197Z,100957.09
2022-09-03T09:01:45.969Z,100942.13
2022-09-03T09:04:43.827Z,100941.66
2022-09-03T09:07:27.348Z,100945.75
2022-09-03T09:10:24.627Z,100936.88
2022-09-03T09:13:28.872Z,100936.22
2022-09-03T09:16:27.763Z,100925.75
2022-09-03T09:19:13.826Z,100934.09
2022-09-03T09:21:50.333Z,100928.50
2022-09-03T09:24:26.512Z,100923.88
2022-09-03T09:27:00.904Z,100936.38
2022-09-03T09:29:33.309Z,100924.28
2022-09-03T09:32:00.310Z,100930.25
2022-09-03T09:34:27.759Z,100925.94
2022-09-03T09:36:56.182Z,100915.91
2022-09-03T09:39:23.874Z,100918.44
2022-09-03T09:42:05.613Z,100909.03
2022-09-03T09:44:32.594Z,100914.13
2022-09-03T09:47:26.528Z,100915.38
2022-09-03T09:50:00.434Z,100912.13
2022-09-03T09:52:31.581Z,100908.38
2022-09-03T09:55:19.160Z,100912.22
2022-09-03T09:57:46.309Z,100905.41
2022-09-03T10:00:19.858Z,100905.72
2022-09-03T10:02:56.491Z,100902.84
2022-09-03T10:05:27.336Z,100915.72
2022-09-03T10:07:59.368Z,100914.25
2022-09-03T10:10:29.044Z,100905.72
2022-09-03T10:13:14.754Z,100900.59
2022-09-03T10:15:56.117Z,100882.38
2022-09-03T10:18:44.559Z,100883.28
2022-09-03T10:21:12.939Z,100894.19
2022-09-03T10:23:59.611Z,100882.00
2022-09-03T10:26:32.342Z,100877.16
2022-09-03T10:29:05.906Z,100887.56
2022-09-03T10:32:22.972Z,100885.41
2022-09-03T10:35:08.233Z,100883.53
2022-09-03T10:38:03.299Z,100883.31
2022-09-03T10:41:03.342Z,100869.66
2022-09-03T10:44:38.671Z,100876.34
2022-09-03T10:47:31.980Z,100872.16
2022-09-03T10:50:17.320Z,100877.13
2022-09-03T10:52:56.843Z,100868.00
2022-09-03T10:55:48.638Z,100868.84
2022-09-03T10:59:09.890Z,100871.59
2022-09-03T11:02:10.544Z,100854.41
2022-09-03T11:04:51.246Z,100858.69
2022-09-03T11:07:23.426Z,100858.44
2022-09-03T11:10:17.025Z,100857.38
2022-09-03T11:12:53.175Z,100852.72
2022-09-03T11:15:27.885Z,100857.41
2022-09-03T11:18:12.894Z,100846.34
2022-09-03T11:20:42.253Z,100842.75
2022-09-03T11:23:13.434Z,100838.69
2022-09-03T11:25:57.120Z,100834.00
2022-09-03T11:28:53.379Z,100834.31
2022-09-03T11:31:57.780Z,100833.69
2022-09-03T11:34:32.653Z,100823.72
2022-09-03T11:37:30.551Z,100820.28
2022-09-03T11:40:17.432Z,100835.44
2022-09-03T11:42:45.890Z,100804.47
2022-09-03T11:45:27.999Z,100825.22
2022-09-03T11:47:55.092Z,100807.59
2022-09-03T11:50:26.531Z,100828.56
2022-09-03T11:53:09.042Z,100823.47
2022-09-03T11:56:04.264Z,100821.94
2022-09-03T11:58:35.038Z,100822.94
2022-09-03T12:01:08.326Z,100824.75
2022-09-03T12:03:58.192Z,100809.78
2022-09-03T12:06:49.655Z,100824.69
2022-09-03T12:10:09.704Z,100817.47
2022-09-03T12:12:59.547Z,100809.16
2022-09-03T12:15:55.264Z,100798.22
2022-09-03T12:18:34.237Z,100795.16
2022-09-03T12:21:09.047Z,100810.84
2022-09-03T12:23:51.417Z,100812.84
2022-09-03T12:26:27.681Z,100788.75
2022-09-03T12:28:59.910Z,100802.22
2022-09-03T12:31:30.903Z,100812.84
2022-09-03T12:34:20.290Z,100816.44
2022-09-03T12:36:51.603Z,100803.56
2022-09-03T12:42:24.282Z,100806.13
2022-09-03T12:44:51.310Z,100813.94
2022-09-03T12:47:39.294Z,100804.09
2022-09-03T12:50:11.344Z,100793.88
2022-09-03T12:52:54.334Z,100789.63
2022-09-03T12:55:37.024Z,100791.66
2022-09-03T12:58:27.441Z,100791.59
2022-09-03T13:01:09.589Z,100781.19
2022-09-03T13:04:21.491Z,100783.03
2022-09-03T13:07:05.277Z,100784.91
2022-09-03T13:09:37.139Z,100784.38
2022-09-03T13:12:07.487Z,100786.69
2022-09-03T13:14:47.183Z,100784.47
2022-09-03T13:17:36.315Z,100783.59
2022-09-03T13:20:49.970Z,100784.56
2022-09-03T13:23:36.696Z,100792.53
2022-09-03T13:26:26.831Z,100786.41
2022-09-03T13:29:31.313Z,100785.47
2022-09-03T13:32:42.393Z,100787.53
2022-09-03T13:35:27.559Z,100786.00
2022-09-03T13:38:03.323Z,100784.03
2022-09-03T13:40:52.326Z,100771.69
2022-09-03T13:43:42.483Z,100773.50
2022-09-03T13:46:23.979Z,100770.25
2022-09-03T13:49:29.753Z,100768.59
2022-09-03T13:52:01.967Z,100759.66
2022-09-03T13:54:48.666Z,100769.03
2022-09-03T13:57:35.143Z,100765.50
2022-09-03T14:00:11.876Z,100763.69
2022-09-03T14:03:16.743Z,100764.84
2022-09-03T14:06:27.966Z,100759.66
2022-09-03T14:09:16.682Z,100766.28
2022-09-03T14:12:20.240Z,100752.91
2022-09-03T14:15:15.872Z,100761.44
2022-09-03T14:18:39.359Z,100766.31
2022-09-03T14:21:27.761Z,100765.25
2022-09-03T14:24:17.185Z,100762.50
2022-09-03T14:27:00.428Z,100758.06
2022-09-03T14:29:33.940Z,100757.00
2022-09-03T14:32:27.456Z,100763.34
2022-09-03T14:35:31.698Z,100757.63
2022-09-03T14:38:25.867Z,100768.44
2022-09-03T14:41:14.180Z,100757.38
2022-09-03T14:44:29.405Z,100759.66
2022-09-03T14:47:35.179Z,100751.50
2022-09-03T14:50:44.584Z,100760.44
2022-09-03T14:54:17.217Z,100752.66
2022-09-03T14:57:12.875Z,100759.72
2022-09-03T15:00:10.310Z,100767.81
2022-09-03T15:03:52.180Z,100761.44
2022-09-03T15:06:33.716Z,100764.81
2022-09-03T15:09:27.696Z,100765.88
2022-09-03T15:12:01.852Z,100773.31
2022-09-03T15:15:01.648Z,100772.91
2022-09-03T15:18:02.877Z,100769.28
2022-09-03T15:20:52.457Z,100759.09
2022-09-03T15:24:00.769Z,100769.09
2022-09-03T15:27:17.843Z,100763.56
2022-09-03T15:30:09.581Z,100762.91
2022-09-03T15:32:55.515Z,100765.44
2022-09-03T15:36:08.945Z,100773.50
2022-09-03T15:39:11.620Z,100770.34
2022-09-03T15:41:46.564Z,100775.91
2022-09-03T15:44:19.510Z,100779.72
2022-09-03T15:47:10.394Z,100775.47
2022-09-03T15:50:01.623Z,100784.75
2022-09-03T15:52:55.139Z,100779.22
2022-09-03T15:55:36.217Z,100783.91
2022-09-03T15:58:12.058Z,100769.91
2022-09-03T16:01:19.557Z,100766.91
2022-09-03T16:04:09.535Z,100779.22
2022-09-03T16:06:58.514Z,100783.00
2022-09-03T16:09:34.766Z,100781.34
2022-09-03T16:12:30.996Z,100776.84
2022-09-03T16:15:10.717Z,100779.59
2022-09-03T16:18:16.231Z,100781.06
2022-09-03T16:20:57.106Z,100760.28
2022-09-03T16:23:50.087Z,100772.19
2022-09-03T16:26:27.425Z,100751.66
2022-09-03T16:29:01.556Z,100767.97
2022-09-03T16:32:06.087Z,100779.63
2022-09-03T16:34:41.834Z,100787.63
2022-09-03T16:37:45.279Z,100789.47
2022-09-03T16:40:40.430Z,100786.69
2022-09-03T16:43:39.494Z,100765.19
2022-09-03T16:46:48.508Z,100800.63
2022-09-03T16:49:40.185Z,100805.72
2022-09-03T16:52:48.252Z,100791.94
2022-09-03T16:55:30.268Z,100792.75
2022-09-03T16:58:39.710Z,100803.31
2022-09-03T17:01:57.615Z,100773.47
2022-09-03T17:05:13.261Z,100794.84
2022-09-03T17:08:18.404Z,100800.34
2022-09-03T17:11:09.431Z,100790.53
2022-09-03T17:13:47.270Z,100813.22
2022-09-03T17:16:56.257Z,100797.91
2022-09-03T17:19:51.884Z,100784.84
2022-09-03T17:22:55.902Z,100802.19
2022-09-03T17:25:35.526Z,100804.91
2022-09-03T17:28:41.303Z,100807.41
2022-09-03T17:31:31.805Z,100805.25
2022-09-03T17:34:38.777Z,100818.81
2022-09-03T17:37:41.542Z,100813.31
2022-09-03T17:40:48.039Z,100820.25
2022-09-03T17:43:32.308Z,100817.19
2022-09-03T17:46:28.934Z,100817.06
2022-09-03T17:49:00.470Z,100810.28
2022-09-03T17:51:51.012Z,100836.16
2022-09-03T17:54:23.832Z,100827.25
2022-09-03T17:57:20.174Z,100822.66
2022-09-03T18:00:10.956Z,100836.00
2022-09-03T18:02:45.150Z,100825.72
2022-09-03T18:05:41.646Z,100845.03
2022-09-03T18:08:44.561Z,100868.28
2022-09-03T18:11:23.870Z,100863.34
2022-09-03T18:14:02.011Z,100858.22
2022-09-03T18:16:34.527Z,100851.56
2022-09-03T18:19:53.457Z,100868.25
2022-09-03T18:22:45.216Z,100861.06
2022-09-03T18:25:33.103Z,100873.09
2022-09-03T18:28:26.099Z,100875.13
2022-09-03T18:31:12.643Z,100873.75
2022-09-03T18:33:58.799Z,100887.00
2022-09-03T18:39:34.689Z,100879.94
2022-09-03T18:43:00.624Z,100882.75
2022-09-03T18:46:46.224Z,100895.34
2022-09-03T18:49:30.126Z,100911.69
2022-09-03T18:52:43.791Z,100900.97
2022-09-03T18:56:04.667Z,100872.88
2022-09-03T18:59:28.365Z,100883.38
2022-09-03T19:02:15.224Z,100897.06
2022-09-03T19:05:33.796Z,100908.25
2022-09-03T19:08:49.402Z,100897.94
2022-09-03T19:12:24.337Z,100903.25
2022-09-03T19:15:42.743Z,100895.09
2022-09-03T19:19:16.381Z,100923.09
2022-09-03T19:22:26.826Z,100922.13
2022-09-03T19:25:23.294Z,100924.88
2022-09-03T19:28:25.658Z,100922.00
2022-09-03T19:31:48.945Z,100912.84
2022-09-03T19:34:42.251Z,100926.50
2022-09-03T19:38:17.434Z,100934.22
2022-09-03T19:41:24.730Z,100933.41
2022-09-03T19:45:03.435Z,100922.88
2022-09-03T19:48:21.266Z,100926.31
2022-09-03T19:51:31.698Z,100933.13
2022-09-03T19:54:21.990Z,100930.25
2022-09-03T19:57:09.700Z,100935.41
2022-09-03T20:00:02.920Z,100920.09
2022-09-03T20:02:59.245Z,100921.50
2022-09-03T20:05:46.052Z,100935.53
2022-09-03T20:08:35.699Z,100922.22
2022-09-03T20:11:05.405Z,100924.63
2022-09-03T20:13:54.371Z,100940.72
2022-09-03T20:16:58.428Z,100942.75
2022-09-03T20:19:37.903Z,100962.19
2022-09-03T20:22:47.635Z,100964.59
2022-09-03T20:25:39.980Z,100964.25
2022-09-03T20:28:41.298Z,100953.69
2022-09-03T20:31:18.300Z,100959.84
2022-09-03T20:34:15.628Z,100978.81
2022-09-03T20:37:04.289Z,100983.28
2022-09-03T20:40:14.994Z,100981.75
2022-09-03T20:43:16.859Z,100988.59
2022-09-03T20:46:21.446Z,100996.31
2022-09-03T20:49:07.730Z,100995.81
2022-09-03T20:51:57.989Z,100984.88
2022-09-03T20:54:56.062Z,101000.78
2022-09-03T20:58:11.031Z,100974.28
2022-09-03T21:01:05.780Z,100991.69
2022-09-03T21:03:51.498Z,101009.28
2022-09-03T21:06:44.805Z,100992.69
2022-09-03T21:09:33.018Z,100995.28
2022-09-03T21:12:22.306Z,101014.56
2022-09-03T21:15:14.569Z,101025.84
2022-09-03T21:18:09.461Z,101026.19
2022-09-03T21:21:16.445Z,101016.75
2022-09-03T21:24:12.479Z,101015.38
2022-09-03T21:26:46.250Z,101007.66
2022-09-03T21:29:28.604Z,101014.16
2022-09-03T21:32:15.587Z,101024.34
2022-09-03T21:35:12.203Z,101034.56
2022-09-03T21:37:50.057Z,101024.81
2022-09-03T21:40:24.500Z,101006.56
2022-09-03T21:43:21.438Z,101040.56
2022-09-03T21:46:06.519Z,101015.53
2022-09-03T21:48:47.557Z,101031.78
2022-09-03T21:51:27.160Z,101035.56
2022-09-03T21:54:24.246Z,101027.88
2022-09-03T21:57:08.071Z,101036.09
2022-09-03T21:59:59.200Z,101038.13
2022-09-03T22:02:32.828Z,101049.34
2022-09-03T22:05:01.694Z,101037.53
2022-09-03T22:08:12.741Z,101054.88
2022-09-03T22:11:12.037Z,101044.84
2022-09-03T22:13:54.442Z,101061.44
2022-09-03T22:17:03.101Z,101061.03
2022-09-03T22:19:37.450Z,101051.44
2022-09-03T22:22:16.752Z,101057.19
2022-09-03T22:25:14.127Z,101054.59
2022-09-03T22:27:58.539Z,101046.19
2022-09-03T22:30:25.685Z,101060.44
2022-09-03T22:33:30.567Z,101073.75
2022-09-03T22:36:47.217Z,101068.94
2022-09-03T22:39:40.090Z,101062.03
2022-09-03T22:42:22.658Z,101065.44
2022-09-03T22:45:19.164Z,101068.66
2022-09-03T22:48:06.760Z,101070.81
2022-09-03T22:51:02.769Z,101059.00
2022-09-03T22:54:04.122Z,101062.75
2022-09-03T22:56:37.066Z,101039.38
2022-09-03T22:59:11.996Z,101079.47
2022-09-03T23:01:57.607Z,101075.22
2022-09-03T23:05:16.600Z,101073.91
2022-09-03T23:08:15.695Z,101068.09
2022-09-03T23:11:05.945Z,101072.84
2022-09-03T23:13:49.453Z,101066.91
2022-09-03T23:17:07.357Z,101088.38
2022-09-03T23:22:41.774Z,101085.03
2022-09-03T23:25:19.537Z,101079.19
2022-09-03T23:27:55.243Z,101080.91
2022-09-03T23:30:22.499Z,101077.22
2022-09-03T23:32:57.772Z,101081.81
2022-09-03T23:35:31.366Z,101092.38
2022-09-03T23:38:23.386Z,101073.00
2022-09-03T23:40:56.308Z,101071.84
2022-09-03T23:44:01.163Z,101079.44
2022-09-03T23:47:15.553Z,101069.03
2022-09-03T23:49:48.208Z,101073.47
2022-09-03T23:52:53.124Z,101076.97
2022-09-03T23:55:57.053Z,101076.72
2022-09-03T23:58:43.571Z,101075.44
